Time;durP1;ratioP1;P1;durP2;ratioP2;P2;SDS_P1;SDS_P2;PMS_P1;PMS_P2;Temp;Humidity;BMP_temperature;BMP_pressure;BME280_temperature;BME280_humidity;BME280_pressure;Samples;Min_cycle;Max_cycle;Signal;HPM_P1;HPM_P2
2022/05/08 00:00:45;;;;;;;12.68;2.65;;;14.10;75.90;;;;;;5111519;28;20035;-74
2022/05/08 00:03:13;;;;;;;16.10;2.55;;;14.00;76.00;;;;;;5110661;28;20072;-74
2022/05/08 00:05:39;;;;;;;12.57;2.60;;;14.00;76.10;;;;;;5111695;28;20086;-74
2022/05/08 00:08:08;;;;;;;20.23;4.07;;;14.00;76.10;;;;;;5111531;28;20031;-74
2022/05/08 00:10:34;;;;;;;11.20;2.30;;;13.90;76.20;;;;;;5110520;28;20051;-75
2022/05/08 00:12:59;;;;;;;22.90;3.60;;;13.90;76.30;;;;;;5111417;28;20058;-74
2022/05/08 00:15:25;;;;;;;8.68;2.17;;;13.90;76.40;;;;;;5111743;28;20032;-74
2022/05/08 00:17:53;;;;;;;20.63;2.45;;;13.80;76.30;;;;;;5110766;28;20024;-74
2022/05/08 00:20:20;;;;;;;11.82;2.83;;;13.80;76.30;;;;;;5110486;28;20065;-74
2022/05/08 00:22:46;;;;;;;17.00;2.85;;;13.80;76.50;;;;;;5098978;28;20100;-74
2022/05/08 00:25:12;;;;;;;13.10;2.40;;;13.70;76.40;;;;;;5110350;28;20035;-74
2022/05/08 00:27:38;;;;;;;13.45;2.70;;;13.70;76.50;;;;;;5111273;28;20142;-74
2022/05/08 00:30:04;;;;;;;17.75;2.50;;;13.70;76.60;;;;;;5111026;28;20067;-74
2022/05/08 00:32:33;;;;;;;12.98;2.25;;;13.70;76.60;;;;;;5110551;28;20042;-75
2022/05/08 00:34:59;;;;;;;19.92;2.30;;;13.60;76.50;;;;;;5111098;28;20031;-72
2022/05/08 00:37:24;;;;;;;10.15;2.38;;;13.70;76.60;;;;;;5110287;28;20585;-72
2022/05/08 00:39:50;;;;;;;14.57;2.70;;;13.60;76.60;;;;;;5111291;28;20034;-72
2022/05/08 00:42:17;;;;;;;13.25;2.50;;;13.50;76.50;;;;;;5110879;28;20221;-72
2022/05/08 00:44:48;;;;;;;14.48;2.63;;;13.50;76.60;;;;;;5103459;28;20027;-72
2022/05/08 00:47:14;;;;;;;14.10;2.50;;;13.50;76.80;;;;;;5108572;28;20051;-72
2022/05/08 00:49:39;;;;;;;11.35;2.10;;;13.50;76.90;;;;;;5108656;28;20413;-72
2022/05/08 00:52:09;;;;;;;13.60;2.47;;;13.50;77.20;;;;;;5110265;28;20057;-72
2022/05/08 00:54:36;;;;;;;20.63;2.80;;;13.40;77.40;;;;;;5110367;28;20043;-72
2022/05/08 00:57:06;;;;;;;14.40;2.13;;;13.40;77.40;;;;;;5110882;28;20028;-72
2022/05/08 00:59:33;;;;;;;9.63;2.20;;;13.40;77.40;;;;;;5110386;28;20113;-72
2022/05/08 01:01:59;;;;;;;20.30;2.47;;;13.30;77.20;;;;;;5108958;28;20503;-72
2022/05/08 01:04:24;;;;;;;10.98;2.38;;;13.30;77.90;;;;;;5110822;28;20042;-72
2022/05/08 01:06:50;;;;;;;13.05;2.85;;;13.30;77.40;;;;;;5110047;28;20119;-72
2022/05/08 01:09:21;;;;;;;23.40;3.42;;;13.30;77.60;;;;;;5111160;28;20086;-72
2022/05/08 01:11:46;;;;;;;13.63;2.10;;;13.30;77.70;;;;;;5114536;28;20036;-72
2022/05/08 01:14:13;;;;;;;11.00;3.08;;;13.20;77.70;;;;;;5096402;28;20024;-72
2022/05/08 01:16:40;;;;;;;21.15;3.10;;;13.20;77.70;;;;;;5113576;28;20363;-72
2022/05/08 01:19:05;;;;;;;8.40;1.80;;;13.20;77.70;;;;;;5112773;28;20058;-72
2022/05/08 01:21:43;;;;;;;14.27;2.88;;;13.20;77.70;;;;;;5113828;28;20055;-72
2022/05/08 01:24:10;;;;;;;6.32;1.90;;;13.20;77.60;;;;;;5114200;28;20024;-72
2022/05/08 01:26:36;;;;;;;9.13;2.10;;;13.10;77.50;;;;;;5112540;28;20035;-72
2022/05/08 01:29:02;;;;;;;8.95;1.95;;;13.10;77.40;;;;;;5109378;28;20053;-72
2022/05/08 01:31:30;;;;;;;8.45;2.08;;;13.10;77.30;;;;;;5108324;28;20084;-72
2022/05/08 01:33:56;;;;;;;14.40;2.40;;;13.10;77.20;;;;;;5112168;28;20089;-72
2022/05/08 01:36:21;;;;;;;11.43;2.33;;;13.00;77.00;;;;;;5114237;28;20402;-72
2022/05/08 01:38:48;;;;;;;14.52;2.65;;;13.10;77.00;;;;;;5113769;28;20035;-73
2022/05/08 01:41:14;;;;;;;7.90;2.15;;;13.00;76.90;;;;;;5113572;28;20110;-72
2022/05/08 01:43:41;;;;;;;17.73;3.38;;;13.00;76.70;;;;;;5113601;28;20106;-72
2022/05/08 01:46:07;;;;;;;11.75;2.28;;;12.90;76.50;;;;;;5114132;28;20035;-72
2022/05/08 01:48:34;;;;;;;14.27;2.65;;;12.90;76.50;;;;;;5112806;28;20493;-72
2022/05/08 01:51:01;;;;;;;12.23;2.33;;;12.90;76.80;;;;;;5113793;28;20075;-72
2022/05/08 01:53:31;;;;;;;10.82;2.75;;;12.90;76.80;;;;;;5112329;28;20360;-72
2022/05/08 01:55:57;;;;;;;7.15;1.95;;;12.80;76.70;;;;;;5113406;28;20035;-72
2022/05/08 01:58:26;;;;;;;10.88;2.22;;;12.80;76.60;;;;;;5113463;28;20463;-72
2022/05/08 02:00:53;;;;;;;10.05;1.70;;;12.80;76.70;;;;;;5113610;28;20054;-72
2022/05/08 02:03:21;;;;;;;11.05;2.22;;;12.70;76.70;;;;;;5112969;28;20134;-72
2022/05/08 02:05:47;;;;;;;12.30;2.17;;;12.70;76.70;;;;;;5113411;28;20115;-72
2022/05/08 02:08:13;;;;;;;11.30;1.90;;;12.70;76.80;;;;;;5113731;28;20039;-72
2022/05/08 02:10:41;;;;;;;12.73;3.40;;;12.70;76.90;;;;;;5112991;28;20126;-72
2022/05/08 02:13:07;;;;;;;6.68;2.08;;;12.60;77.10;;;;;;5113738;28;20077;-72
2022/05/08 02:15:34;;;;;;;12.35;2.08;;;12.60;77.20;;;;;;5113130;28;20360;-72
2022/05/08 02:18:02;;;;;;;8.68;2.15;;;12.50;77.20;;;;;;5112705;28;20028;-72
2022/05/08 02:20:28;;;;;;;10.00;2.30;;;12.50;77.30;;;;;;5113035;28;20027;-72
2022/05/08 02:22:55;;;;;;;6.50;1.92;;;12.50;77.40;;;;;;5112733;28;20051;-72
2022/05/08 02:25:21;;;;;;;4.38;1.95;;;12.50;77.50;;;;;;5113279;28;20039;-72
2022/05/08 02:27:51;;;;;;;10.85;2.15;;;12.50;77.40;;;;;;5113376;28;20042;-72
2022/05/08 02:30:20;;;;;;;10.43;1.95;;;12.50;77.40;;;;;;5111076;28;20077;-73
2022/05/08 02:32:46;;;;;;;12.27;2.42;;;12.40;77.30;;;;;;5111420;28;20070;-72
2022/05/08 02:35:17;;;;;;;14.07;2.38;;;12.50;77.40;;;;;;5112860;28;20470;-73
2022/05/08 02:37:44;;;;;;;9.98;1.80;;;12.40;77.20;;;;;;5111905;28;20032;-73
2022/05/08 02:40:10;;;;;;;11.95;2.35;;;12.40;77.20;;;;;;5112867;28;20061;-73
2022/05/08 02:42:37;;;;;;;11.10;2.00;;;12.30;77.10;;;;;;5112792;28;20111;-73
2022/05/08 02:45:04;;;;;;;7.35;2.00;;;12.30;77.10;;;;;;5111318;28;20043;-73
2022/05/08 02:47:32;;;;;;;7.55;1.85;;;12.30;77.20;;;;;;5113018;28;20254;-73
2022/05/08 02:49:58;;;;;;;12.63;2.28;;;12.30;77.50;;;;;;5112205;28;20123;-73
2022/05/08 02:52:23;;;;;;;7.35;1.90;;;12.30;77.50;;;;;;5111466;28;20150;-73
2022/05/08 02:54:49;;;;;;;8.43;1.88;;;12.20;77.40;;;;;;5112771;28;20028;-73
2022/05/08 03:00:05;;;;;;;7.45;1.95;;;12.20;77.30;;;;;;5111738;28;20030;-74
2022/05/08 03:02:33;;;;;;;12.07;1.63;;;12.20;77.40;;;;;;5112402;28;20455;-73
2022/05/08 03:05:00;;;;;;;12.43;2.15;;;12.20;77.30;;;;;;5111790;28;20035;-73
2022/05/08 03:07:27;;;;;;;11.48;2.42;;;12.10;77.40;;;;;;5112604;28;20054;-73
2022/05/08 03:09:53;;;;;;;7.82;1.55;;;12.10;77.40;;;;;;5112165;28;20071;-73
2022/05/08 03:12:18;;;;;;;5.90;1.92;;;12.10;77.50;;;;;;5111606;28;20026;-73
2022/05/08 03:14:44;;;;;;;5.00;1.60;;;12.10;77.60;;;;;;5112454;28;20023;-73
2022/05/08 03:17:10;;;;;;;10.48;1.77;;;12.10;77.60;;;;;;5112322;28;20375;-73
2022/05/08 03:19:36;;;;;;;6.68;2.08;;;12.10;77.70;;;;;;5111381;28;20122;-73
2022/05/08 03:22:02;;;;;;;8.88;2.20;;;12.00;77.80;;;;;;5111847;28;20050;-73
2022/05/08 03:24:31;;;;;;;10.02;2.15;;;12.00;77.80;;;;;;5111948;28;20032;-73
2022/05/08 03:26:57;;;;;;;11.88;2.00;;;12.10;78.10;;;;;;5109207;28;20034;-73
2022/05/08 03:29:25;;;;;;;12.30;2.17;;;12.00;78.20;;;;;;5100641;28;20023;-74
2022/05/08 03:31:51;;;;;;;9.70;1.67;;;12.00;78.20;;;;;;5111282;28;20506;-74
2022/05/08 03:34:17;;;;;;;6.25;1.50;;;12.00;78.30;;;;;;5111357;28;20115;-74
2022/05/08 03:36:44;;;;;;;9.27;2.08;;;11.90;78.40;;;;;;5111567;28;20122;-75
2022/05/08 03:39:11;;;;;;;7.10;1.98;;;12.00;78.50;;;;;;5104341;28;20032;-74
2022/05/08 03:41:37;;;;;;;5.88;1.60;;;12.00;78.60;;;;;;5110886;28;20027;-74
2022/05/08 03:44:03;;;;;;;6.25;1.67;;;11.90;78.50;;;;;;5111623;28;20032;-75
2022/05/08 03:46:29;;;;;;;9.02;2.08;;;12.00;78.70;;;;;;5111686;28;20031;-75
2022/05/08 03:48:55;;;;;;;8.63;1.80;;;11.90;78.70;;;;;;5111187;28;20034;-72
2022/05/08 03:51:21;;;;;;;6.85;1.65;;;11.90;78.70;;;;;;5111718;28;20347;-72
2022/05/08 03:53:47;;;;;;;6.97;1.75;;;11.90;78.80;;;;;;5109970;28;20034;-72
2022/05/08 03:56:12;;;;;;;10.75;1.98;;;11.80;78.80;;;;;;5110955;28;20530;-72
2022/05/08 03:58:41;;;;;;;8.07;2.10;;;11.80;78.80;;;;;;5111557;28;20024;-73
2022/05/08 04:01:07;;;;;;;9.45;2.00;;;11.80;78.80;;;;;;5111466;28;20071;-72
2022/05/08 04:03:33;;;;;;;13.75;1.55;;;11.80;78.80;;;;;;5111247;28;20474;-72
2022/05/08 04:06:07;;;;;;;6.88;1.95;;;11.80;78.80;;;;;;5111392;28;20028;-73
2022/05/08 04:08:33;;;;;;;7.68;1.92;;;11.80;78.90;;;;;;5110909;28;20418;-73
2022/05/08 04:10:59;;;;;;;6.43;1.52;;;11.80;78.90;;;;;;5111104;28;20040;-72
2022/05/08 04:13:25;;;;;;;11.57;2.38;;;11.80;78.90;;;;;;5111680;28;20032;-72
2022/05/08 04:18:35;;;;;;;5.70;1.67;;;11.70;78.90;;;;;;5099152;28;20035;-72
2022/05/08 04:21:04;;;;;;;8.20;2.13;;;11.70;78.90;;;;;;5096742;28;20136;-73
2022/05/08 04:26:14;;;;;;;10.63;2.00;;;11.70;79.10;;;;;;5100723;28;20073;-73
2022/05/08 04:28:39;;;;;;;9.05;1.90;;;11.70;79.10;;;;;;5111168;28;20040;-73
2022/05/08 04:31:08;;;;;;;7.68;2.10;;;11.70;79.30;;;;;;5110545;28;20040;-73
2022/05/08 04:33:34;;;;;;;9.38;2.13;;;11.70;79.30;;;;;;5111086;28;20162;-73
2022/05/08 04:35:59;;;;;;;8.02;1.80;;;11.70;79.40;;;;;;5111566;28;20107;-73
2022/05/08 04:38:25;;;;;;;5.30;1.60;;;11.70;79.50;;;;;;5110440;28;20027;-71
2022/05/08 04:40:50;;;;;;;11.13;2.15;;;11.60;79.50;;;;;;5111502;28;20047;-73
2022/05/08 04:43:16;;;;;;;8.63;1.80;;;11.60;79.70;;;;;;5097716;28;20027;-74
2022/05/08 04:45:42;;;;;;;6.25;2.10;;;11.60;79.70;;;;;;5113435;28;20602;-73
2022/05/08 04:48:08;;;;;;;9.55;2.08;;;11.60;79.80;;;;;;5115169;28;20027;-73
2022/05/08 04:50:34;;;;;;;9.70;2.10;;;11.60;79.90;;;;;;5114474;28;20506;-74
2022/05/08 04:53:00;;;;;;;11.00;2.20;;;11.60;80.60;;;;;;5113277;28;20031;-73
2022/05/08 04:55:26;;;;;;;9.07;1.90;;;11.60;80.10;;;;;;5115115;28;20040;-73
2022/05/08 04:57:52;;;;;;;5.45;1.70;;;11.60;80.30;;;;;;5114556;28;20019;-73
2022/05/08 05:00:19;;;;;;;15.35;1.88;;;11.60;80.50;;;;;;5101532;28;20459;-73
2022/05/08 05:02:45;;;;;;;6.68;1.80;;;11.60;80.70;;;;;;5114586;28;20051;-73
2022/05/08 05:05:10;;;;;;;6.78;1.67;;;11.70;81.00;;;;;;5114514;27;20030;-73
2022/05/08 05:07:40;;;;;;;9.20;1.92;;;11.70;81.30;;;;;;5114746;28;20032;-73
2022/05/08 05:10:07;;;;;;;6.45;1.70;;;11.70;81.50;;;;;;5114836;28;20040;-73
2022/05/08 05:12:32;;;;;;;8.02;1.90;;;11.60;81.60;;;;;;5113824;28;20114;-73
2022/05/08 05:14:59;;;;;;;5.82;1.58;;;11.60;81.70;;;;;;5114659;28;20110;-72
2022/05/08 05:17:25;;;;;;;8.20;1.88;;;11.70;82.00;;;;;;5114433;28;20024;-73
2022/05/08 05:19:51;;;;;;;14.05;2.53;;;11.60;82.10;;;;;;5114160;28;20035;-73
2022/05/08 05:22:21;;;;;;;8.73;2.00;;;11.70;82.30;;;;;;5114313;28;20494;-73
2022/05/08 05:24:47;;;;;;;12.07;2.38;;;11.70;82.70;;;;;;5114306;28;20122;-73
2022/05/08 05:27:12;;;;;;;15.68;2.13;;;11.70;82.80;;;;;;5113767;28;20119;-73
2022/05/08 05:29:38;;;;;;;7.05;1.73;;;11.70;83.00;;;;;;5114210;28;20032;-74
2022/05/08 05:32:04;;;;;;;8.65;2.15;;;11.80;83.10;;;;;;5114084;28;20027;-73
2022/05/08 05:34:29;;;;;;;12.70;2.03;;;11.80;83.20;;;;;;5113071;28;20496;-74
2022/05/08 05:36:55;;;;;;;9.63;1.50;;;11.80;83.30;;;;;;5114206;28;20024;-73
2022/05/08 05:39:21;;;;;;;8.02;2.53;;;11.80;83.40;;;;;;5107436;28;20526;-73
2022/05/08 05:41:47;;;;;;;4.47;1.67;;;11.80;83.60;;;;;;5113212;28;20039;-73
2022/05/08 05:44:13;;;;;;;14.10;2.08;;;11.80;83.70;;;;;;5114120;28;20032;-73
2022/05/08 05:49:26;;;;;;;13.18;1.70;;;11.80;83.80;;;;;;5099326;28;20062;-73
2022/05/08 05:51:56;;;;;;;10.00;1.83;;;11.80;83.80;;;;;;5096421;28;20046;-76
2022/05/08 05:54:22;;;;;;;8.80;1.58;;;11.80;83.90;;;;;;5094834;28;20118;-77
2022/05/08 05:56:48;;;;;;;11.70;1.60;;;11.80;83.90;;;;;;5091707;28;20024;-72
2022/05/08 05:59:15;;;;;;;6.90;1.33;;;11.70;83.90;;;;;;5097669;28;20028;-74
2022/05/08 06:01:40;;;;;;;4.40;1.40;;;11.80;84.10;;;;;;5112738;27;20425;-75
2022/05/08 06:04:06;;;;;;;14.68;1.98;;;11.80;84.20;;;;;;5113547;28;20106;-75
2022/05/08 06:06:31;;;;;;;10.15;2.22;;;11.80;84.00;;;;;;5113752;28;20093;-70
2022/05/08 06:08:57;;;;;;;8.15;2.13;;;11.80;83.90;;;;;;5112658;28;20024;-72
2022/05/08 06:11:26;;;;;;;7.63;1.83;;;11.70;83.90;;;;;;5113528;28;20543;-71
2022/05/08 06:13:51;;;;;;;8.98;2.17;;;11.70;83.90;;;;;;5107198;28;20451;-69
2022/05/08 06:16:18;;;;;;;11.07;3.08;;;11.80;83.80;;;;;;5105757;28;20051;-68
2022/05/08 06:18:44;;;;;;;8.40;1.67;;;11.70;83.60;;;;;;5106785;28;20088;-68
2022/05/08 06:21:10;;;;;;;10.93;2.05;;;11.80;83.70;;;;;;5106632;28;20024;-67
2022/05/08 06:23:36;;;;;;;8.70;1.63;;;11.70;83.40;;;;;;5101028;28;20059;-70
2022/05/08 06:26:02;;;;;;;10.15;1.80;;;11.70;83.40;;;;;;5102815;28;20074;-70
2022/05/08 06:28:29;;;;;;;7.30;1.90;;;11.70;83.70;;;;;;5098318;28;20621;-71
2022/05/08 06:30:55;;;;;;;6.18;1.63;;;11.80;84.10;;;;;;5091021;28;20144;-71
2022/05/08 06:33:20;;;;;;;10.60;1.90;;;11.80;84.50;;;;;;5094014;28;20035;-71
2022/05/08 06:35:46;;;;;;;15.95;2.83;;;11.80;85.10;;;;;;5112629;28;20028;-71
2022/05/08 06:38:12;;;;;;;10.70;2.30;;;11.80;85.30;;;;;;5112112;28;20037;-71
2022/05/08 06:40:39;;;;;;;11.48;1.52;;;11.80;85.20;;;;;;5112431;28;20382;-71
2022/05/08 06:43:06;;;;;;;6.85;1.42;;;11.80;85.30;;;;;;5111801;28;20479;-71
2022/05/08 06:45:31;;;;;;;6.20;1.60;;;11.90;85.10;;;;;;5113016;28;20051;-72
2022/05/08 06:47:58;;;;;;;9.00;1.40;;;12.00;84.90;;;;;;5112724;28;20080;-70
2022/05/08 06:50:23;;;;;;;3.80;1.52;;;12.00;84.80;;;;;;5101309;28;20158;-70
2022/05/08 06:52:49;;;;;;;12.23;2.13;;;12.00;84.80;;;;;;5109592;28;20436;-71
2022/05/08 06:55:15;;;;;;;9.82;1.85;;;12.10;85.10;;;;;;5099318;28;20048;-70
2022/05/08 06:57:41;;;;;;;10.43;1.70;;;12.10;85.40;;;;;;5110802;28;20466;-70
2022/05/08 07:02:51;;;;;;;5.90;1.80;;;12.10;85.20;;;;;;5097256;28;20155;-70
2022/05/08 07:05:17;;;;;;;10.02;1.83;;;12.20;84.50;;;;;;5099985;28;20526;-71
2022/05/08 07:07:43;;;;;;;11.80;2.42;;;12.30;84.30;;;;;;5111658;28;20027;-71
2022/05/08 07:10:09;;;;;;;10.70;1.92;;;12.30;84.10;;;;;;5112601;28;20395;-70
2022/05/08 07:12:36;;;;;;;16.10;2.25;;;12.30;83.20;;;;;;5096788;28;20073;-69
2022/05/08 07:15:03;;;;;;;3.60;1.85;;;12.40;83.70;;;;;;5090392;28;20119;-70
2022/05/08 07:17:29;;;;;;;12.30;1.67;;;12.40;83.90;;;;;;5096130;28;20094;-70
2022/05/08 07:19:58;;;;;;;6.35;1.48;;;12.50;84.00;;;;;;5096205;28;20496;-70
2022/05/08 07:22:24;;;;;;;13.38;2.17;;;12.60;83.50;;;;;;5098798;28;20115;-70
2022/05/08 07:24:50;;;;;;;6.82;1.30;;;12.60;82.90;;;;;;5098647;28;20540;-70
2022/05/08 07:27:15;;;;;;;7.43;1.65;;;12.60;82.80;;;;;;5094869;28;20031;-70
2022/05/08 07:29:42;;;;;;;25.50;2.88;;;12.70;83.10;;;;;;5098360;28;20494;-70
2022/05/08 07:32:08;;;;;;;6.32;1.55;;;12.70;83.20;;;;;;5095537;28;20032;-71
2022/05/08 07:37:18;;;;;;;17.70;1.92;;;12.70;83.20;;;;;;5095731;28;20148;-71
2022/05/08 07:39:44;;;;;;;16.23;2.63;;;12.70;83.00;;;;;;5092388;28;20106;-71
2022/05/08 07:42:10;;;;;;;10.07;1.80;;;12.80;83.10;;;;;;5092573;28;20027;-71
2022/05/08 07:44:35;;;;;;;10.13;2.00;;;12.80;82.60;;;;;;5094364;28;20016;-69
2022/05/08 07:47:01;;;;;;;9.80;1.70;;;12.90;83.40;;;;;;5091149;28;20093;-73
2022/05/08 07:49:27;;;;;;;13.18;1.98;;;12.90;84.10;;;;;;5103724;28;20036;-70
2022/05/08 07:51:53;;;;;;;12.85;2.10;;;12.90;83.90;;;;;;5091965;28;20047;-71
2022/05/08 07:54:19;;;;;;;18.85;2.45;;;12.90;83.60;;;;;;5092137;28;20020;-70
2022/05/08 07:56:45;;;;;;;6.25;1.65;;;13.00;83.60;;;;;;5090967;28;20468;-70
2022/05/08 07:59:14;;;;;;;7.97;1.75;;;13.00;83.80;;;;;;5087408;28;20031;-71
2022/05/08 08:01:40;;;;;;;27.50;2.10;;;13.10;83.60;;;;;;5085596;28;20048;-71
2022/05/08 08:04:08;;;;;;;7.47;1.95;;;13.20;83.80;;;;;;5087750;28;20024;-71
2022/05/08 08:06:34;;;;;;;11.38;2.10;;;13.20;83.90;;;;;;5089241;28;20387;-70
2022/05/08 08:09:00;;;;;;;15.38;1.80;;;13.30;83.20;;;;;;5092071;28;20032;-71
2022/05/08 08:11:25;;;;;;;11.63;1.70;;;13.30;83.00;;;;;;5101225;28;20115;-70
2022/05/08 08:13:51;;;;;;;7.30;1.83;;;13.40;83.10;;;;;;5101929;28;20024;-71
2022/05/08 08:16:17;;;;;;;5.60;1.45;;;13.40;83.00;;;;;;5089551;28;20483;-72
2022/05/08 08:18:44;;;;;;;6.72;1.65;;;13.40;83.10;;;;;;5093009;28;20427;-71
2022/05/08 08:21:13;;;;;;;9.77;2.28;;;13.40;83.00;;;;;;5088885;28;20807;-70
2022/05/08 08:23:41;;;;;;;8.60;1.60;;;13.50;82.70;;;;;;5095390;28;20028;-70
2022/05/08 08:26:08;;;;;;;9.13;1.80;;;13.50;83.00;;;;;;5093996;28;20035;-71
2022/05/08 08:28:34;;;;;;;18.50;2.72;;;13.60;82.90;;;;;;5089779;28;20390;-71
2022/05/08 08:31:00;;;;;;;10.55;2.20;;;13.50;82.50;;;;;;5096212;28;20101;-71
2022/05/08 08:33:26;;;;;;;9.18;1.90;;;13.60;81.90;;;;;;5094300;28;20487;-71
2022/05/08 08:35:53;;;;;;;10.05;1.85;;;13.60;81.80;;;;;;5091244;28;20028;-70
2022/05/08 08:38:19;;;;;;;7.30;1.95;;;13.70;81.80;;;;;;5096364;28;20107;-69
2022/05/08 08:40:48;;;;;;;9.88;1.98;;;13.70;81.90;;;;;;5096091;28;20801;-71
2022/05/08 08:43:18;;;;;;;6.28;1.83;;;13.70;81.10;;;;;;5090934;28;20027;-70
2022/05/08 08:48:34;;;;;;;10.88;2.08;;;13.80;80.50;;;;;;5091987;28;20047;-69
2022/05/08 08:51:01;;;;;;;11.45;1.85;;;13.80;79.50;;;;;;5091079;28;20360;-71
2022/05/08 08:53:28;;;;;;;13.57;2.00;;;13.80;80.00;;;;;;5091681;28;20032;-70
2022/05/08 08:55:55;;;;;;;7.43;1.60;;;13.70;81.10;;;;;;5091031;28;20031;-69
2022/05/08 08:58:21;;;;;;;18.30;4.13;;;13.80;81.30;;;;;;5091139;28;20047;-69
2022/05/08 09:00:51;;;;;;;11.65;2.47;;;13.90;80.60;;;;;;5091573;28;20071;-71
2022/05/08 09:03:26;;;;;;;10.00;1.75;;;13.90;79.60;;;;;;5091934;28;20054;-72
2022/05/08 09:05:59;;;;;;;10.52;2.00;;;13.90;79.80;;;;;;5093452;27;20149;-72
2022/05/08 09:08:27;;;;;;;12.68;2.30;;;13.90;79.20;;;;;;5091687;28;20055;-69
2022/05/08 09:10:54;;;;;;;14.82;2.17;;;14.00;80.50;;;;;;5090581;28;20048;-70
2022/05/08 09:13:22;;;;;;;17.77;2.20;;;14.00;80.60;;;;;;5090946;28;20028;-71
2022/05/08 09:15:49;;;;;;;11.23;2.17;;;14.00;80.30;;;;;;5089727;28;20043;-71
2022/05/08 09:18:18;;;;;;;11.40;2.55;;;14.00;80.30;;;;;;5089467;28;20036;-72
2022/05/08 09:20:48;;;;;;;4.85;1.90;;;14.00;79.50;;;;;;5090592;28;20137;-72
2022/05/08 09:23:20;;;;;;;6.35;1.67;;;14.00;79.10;;;;;;5093979;28;20051;-70
2022/05/08 09:26:02;;;;;;;9.07;1.90;;;14.00;79.50;;;;;;5089622;28;20048;-72
2022/05/08 09:28:40;;;;;;;11.13;2.22;;;14.10;78.60;;;;;;5092254;28;20016;-74
2022/05/08 09:31:08;;;;;;;11.45;2.35;;;14.10;79.80;;;;;;5095161;28;20068;-70
2022/05/08 09:33:39;;;;;;;9.77;2.08;;;14.20;80.70;;;;;;5094461;28;20476;-67
2022/05/08 09:36:10;;;;;;;8.23;2.22;;;14.20;79.00;;;;;;5107157;28;20103;-68
2022/05/08 09:38:44;;;;;;;4.93;1.42;;;14.20;78.20;;;;;;5103878;28;20084;-68
2022/05/08 09:41:10;;;;;;;11.30;1.80;;;14.30;79.60;;;;;;5107371;28;20038;-68
2022/05/08 09:43:36;;;;;;;12.07;2.05;;;14.30;79.60;;;;;;5093759;28;20390;-68
2022/05/08 09:46:04;;;;;;;9.27;1.92;;;14.30;79.00;;;;;;5095468;28;20047;-69
2022/05/08 09:48:32;;;;;;;10.27;2.60;;;14.40;80.00;;;;;;5114149;28;20035;-69
2022/05/08 09:51:02;;;;;;;10.48;2.08;;;14.40;78.70;;;;;;5110015;28;20093;-69
2022/05/08 09:53:29;;;;;;;7.32;1.88;;;14.50;78.70;;;;;;5103979;28;20031;-69
2022/05/08 09:55:56;;;;;;;11.60;2.05;;;14.50;78.90;;;;;;5111804;28;20463;-69
2022/05/08 09:58:22;;;;;;;6.85;1.70;;;14.50;78.80;;;;;;5106008;28;20035;-69
2022/05/08 10:00:49;;;;;;;9.68;1.73;;;14.60;80.00;;;;;;5104681;28;20398;-70
2022/05/08 10:03:15;;;;;;;10.80;2.13;;;14.60;80.40;;;;;;5104860;28;20051;-69
2022/05/08 10:05:45;;;;;;;14.15;1.95;;;14.50;79.20;;;;;;5098485;28;20126;-82
2022/05/08 10:08:13;;;;;;;13.88;1.65;;;14.60;78.40;;;;;;5098089;28;20024;-70
2022/05/08 10:13:56;;;;;;;6.35;1.50;;;14.60;78.10;;;;;;5100499;28;20123;-70
2022/05/08 10:16:46;;;;;;;7.20;1.65;;;14.60;77.50;;;;;;5098222;28;20099;-69
2022/05/08 10:19:23;;;;;;;7.97;1.90;;;14.70;78.20;;;;;;5105955;28;20028;-71
2022/05/08 10:22:09;;;;;;;11.65;2.17;;;14.70;78.10;;;;;;5102877;28;20032;-73
2022/05/08 10:24:43;;;;;;;18.38;2.47;;;14.70;78.50;;;;;;5108547;28;20076;-73
2022/05/08 10:27:14;;;;;;;9.50;2.28;;;14.70;77.80;;;;;;5105819;28;20027;-72
2022/05/08 10:30:01;;;;;;;10.90;1.88;;;14.70;78.50;;;;;;5106190;28;20164;-74
2022/05/08 10:32:31;;;;;;;11.73;2.10;;;14.70;77.30;;;;;;5102845;28;20024;-70
2022/05/08 10:35:03;;;;;;;11.35;2.17;;;14.80;78.30;;;;;;5105408;28;20050;-71
2022/05/08 10:37:29;;;;;;;11.10;2.42;;;14.80;77.60;;;;;;5098314;28;20031;-70
2022/05/08 10:39:56;;;;;;;12.02;2.05;;;14.80;77.90;;;;;;5105078;28;20031;-69
2022/05/08 10:42:33;;;;;;;13.15;2.08;;;14.80;76.50;;;;;;5103444;28;20505;-71
2022/05/08 10:45:04;;;;;;;9.20;1.75;;;14.90;76.70;;;;;;5095123;28;20020;-70
2022/05/08 10:47:40;;;;;;;7.85;1.85;;;14.90;75.70;;;;;;5101707;28;20032;-70
2022/05/08 10:50:09;;;;;;;2.75;1.15;;;14.90;76.20;;;;;;5098023;28;20036;-70
2022/05/08 10:52:43;;;;;;;8.77;1.98;;;15.00;77.10;;;;;;5101280;28;20035;-70
2022/05/08 10:55:17;;;;;;;11.02;1.92;;;15.00;77.10;;;;;;5100597;28;20032;-70
2022/05/08 10:57:48;;;;;;;15.77;1.63;;;15.00;76.90;;;;;;5097846;28;20038;-71
2022/05/08 11:00:25;;;;;;;16.15;1.70;;;15.00;75.20;;;;;;5098126;28;20032;-73
2022/05/08 11:02:59;;;;;;;8.60;1.92;;;15.10;75.60;;;;;;5098149;28;20044;-71
2022/05/08 11:05:29;;;;;;;10.55;2.28;;;15.10;75.70;;;;;;5096662;28;20024;-70
2022/05/08 11:08:01;;;;;;;10.70;2.47;;;15.10;75.40;;;;;;5097308;28;20032;-70
2022/05/08 11:10:31;;;;;;;6.50;1.75;;;15.20;75.30;;;;;;5094927;28;20070;-70
2022/05/08 11:12:56;;;;;;;12.02;2.35;;;15.20;75.40;;;;;;5100567;28;20026;-75
2022/05/08 11:15:23;;;;;;;9.95;2.10;;;15.30;75.30;;;;;;5106490;28;20031;-69
2022/05/08 11:18:15;;;;;;;10.70;2.20;;;15.20;75.00;;;;;;5096871;28;20427;-68
2022/05/08 11:21:02;;;;;;;18.55;2.83;;;15.30;74.70;;;;;;5091248;28;20132;-67
2022/05/08 11:23:32;;;;;;;10.38;2.80;;;15.40;74.90;;;;;;5100299;28;20464;-71
2022/05/08 11:26:11;;;;;;;9.18;2.00;;;15.40;74.10;;;;;;5107479;28;20024;-72
2022/05/08 11:28:48;;;;;;;7.45;1.95;;;15.40;75.00;;;;;;5091482;28;20024;-71
2022/05/08 11:31:16;;;;;;;14.35;2.13;;;15.40;75.40;;;;;;5091543;28;20075;-72
2022/05/08 11:36:29;;;;;;;10.20;1.85;;;15.40;75.70;;;;;;5107161;28;20081;-71
2022/05/08 11:38:58;;;;;;;15.13;2.10;;;15.40;76.60;;;;;;5110242;28;20076;-71
2022/05/08 11:41:31;;;;;;;6.45;2.22;;;15.40;76.30;;;;;;5107083;28;20028;-72
2022/05/08 11:43:59;;;;;;;4.45;1.42;;;15.40;75.50;;;;;;5102212;28;20415;-71
2022/05/08 11:46:37;;;;;;;6.15;1.45;;;15.50;76.20;;;;;;5104293;28;20036;-71
2022/05/08 11:49:21;;;;;;;12.15;2.60;;;15.40;75.70;;;;;;5091482;28;20036;-71
2022/05/08 11:51:56;;;;;;;8.32;1.90;;;15.50;76.60;;;;;;5111429;28;20053;-72
2022/05/08 11:54:38;;;;;;;6.70;1.95;;;15.50;76.60;;;;;;5110502;28;20031;-72
2022/05/08 11:57:13;;;;;;;13.88;3.28;;;15.50;76.20;;;;;;5111868;28;20046;-71
2022/05/08 11:59:39;;;;;;;11.63;2.78;;;15.60;77.00;;;;;;5110931;28;20036;-72
2022/05/08 12:02:05;;;;;;;10.55;2.30;;;15.60;76.00;;;;;;5111148;28;20642;-71
2022/05/08 12:04:34;;;;;;;14.15;2.22;;;15.60;75.90;;;;;;5102514;28;20043;-71
2022/05/08 12:07:07;;;;;;;8.75;1.83;;;15.70;75.80;;;;;;5090242;28;20475;-72
2022/05/08 12:09:44;;;;;;;12.35;2.05;;;15.70;77.00;;;;;;5102548;28;20077;-72
2022/05/08 12:12:39;;;;;;;9.73;1.88;;;15.80;76.20;;;;;;5111297;28;20046;-72
2022/05/08 12:15:06;;;;;;;7.32;1.90;;;15.80;76.80;;;;;;5093061;28;20051;-71
2022/05/08 12:17:41;;;;;;;9.43;1.75;;;15.70;73.90;;;;;;5111694;28;20040;-71
2022/05/08 12:20:20;;;;;;;11.57;1.77;;;15.80;75.10;;;;;;5105341;28;20487;-72
2022/05/08 12:22:59;;;;;;;12.93;1.75;;;15.80;73.30;;;;;;5104505;28;20136;-71
2022/05/08 12:25:24;;;;;;;8.35;2.05;;;15.80;74.10;;;;;;5101472;28;20043;-71
2022/05/08 12:27:50;;;;;;;14.07;2.28;;;15.80;74.20;;;;;;5090212;28;20024;-71
2022/05/08 12:30:16;;;;;;;8.90;2.22;;;15.90;74.60;;;;;;5090627;28;20462;-71
2022/05/08 12:32:42;;;;;;;9.32;2.20;;;15.80;74.90;;;;;;5101974;28;20035;-71
2022/05/08 12:35:09;;;;;;;8.55;2.05;;;15.90;74.80;;;;;;5105500;28;20374;-71
2022/05/08 12:37:35;;;;;;;6.35;2.10;;;16.00;74.40;;;;;;5090756;28;20032;-71
2022/05/08 12:40:01;;;;;;;12.05;2.13;;;16.00;74.50;;;;;;5109551;28;20031;-71
2022/05/08 12:42:36;;;;;;;6.03;1.73;;;16.10;74.80;;;;;;5110415;28;20084;-72
2022/05/08 12:45:03;;;;;;;17.83;2.78;;;16.00;74.80;;;;;;5097915;28;20047;-72
2022/05/08 12:47:29;;;;;;;7.25;1.60;;;16.10;75.40;;;;;;5110838;28;20028;-72
2022/05/08 12:49:54;;;;;;;10.07;2.40;;;16.10;75.00;;;;;;5110598;28;20509;-72
2022/05/08 12:52:20;;;;;;;11.10;2.28;;;16.20;75.40;;;;;;5109921;28;20372;-72
2022/05/08 12:54:46;;;;;;;11.98;2.20;;;16.10;73.10;;;;;;5090706;28;20366;-72
2022/05/08 12:59:42;;;;;;;10.27;2.53;;;16.10;73.60;;;;;;5091683;28;20073;-72
2022/05/08 13:00:05;;;;;;;12.75;2.10;;;16.10;73.50;;;;;;5099485;28;20047;-72
2022/05/08 13:02:31;;;;;;;13.30;2.70;;;16.10;73.40;;;;;;5108863;28;20145;-72
2022/05/08 13:04:56;;;;;;;9.95;2.20;;;16.10;73.50;;;;;;5110571;28;20063;-72
2022/05/08 13:07:25;;;;;;;11.30;2.00;;;16.20;73.50;;;;;;5100817;27;20122;-73
2022/05/08 13:09:51;;;;;;;11.75;2.33;;;16.10;73.80;;;;;;5100514;27;20031;-72